createdAt,value
2022-12-18T00:00:20.336Z,45.38
2022-12-18T00:02:48.802Z,45.50
2022-12-18T00:05:17.322Z,45.49
2022-12-18T00:07:45.677Z,45.46
2022-12-18T00:10:15.323Z,45.46
2022-12-18T00:12:43.995Z,45.35
2022-12-18T00:15:12.702Z,45.52
2022-12-18T00:17:42.540Z,45.47
2022-12-18T00:20:11.802Z,45.37
2022-12-18T00:22:40.165Z,45.34
2022-12-18T00:25:09.443Z,45.41
2022-12-18T00:27:37.853Z,45.48
2022-12-18T00:30:07.371Z,45.39
2022-12-18T00:32:35.806Z,45.51
2022-12-18T00:35:06.656Z,45.62
2022-12-18T00:37:35.616Z,45.47
2022-12-18T00:40:04.609Z,45.70
2022-12-18T00:42:50.811Z,45.59
2022-12-18T00:45:19.280Z,45.49
2022-12-18T00:47:48.587Z,45.58
2022-12-18T00:50:18.633Z,45.60
2022-12-18T00:52:47.148Z,45.66
2022-12-18T00:55:16.278Z,45.29
2022-12-18T00:57:44.969Z,45.67
2022-12-18T01:00:16.553Z,45.63
2022-12-18T01:02:45.090Z,45.57
2022-12-18T01:05:15.131Z,45.80
2022-12-18T01:07:45.319Z,45.61
2022-12-18T01:10:15.134Z,45.62
2022-12-18T01:12:43.608Z,45.71
2022-12-18T01:15:14.676Z,45.63
2022-12-18T01:17:43.598Z,45.62
2022-12-18T01:20:13.532Z,45.69
2022-12-18T01:22:42.125Z,45.72
2022-12-18T01:25:12.232Z,45.75
2022-12-18T01:27:40.700Z,45.71
2022-12-18T01:30:10.166Z,45.75
2022-12-18T01:32:38.577Z,45.78
2022-12-18T01:35:08.235Z,45.87
2022-12-18T01:37:36.700Z,45.79
2022-12-18T01:40:06.016Z,45.67
2022-12-18T01:42:35.810Z,45.78
2022-12-18T01:45:24.075Z,45.74
2022-12-18T01:47:55.339Z,45.83
2022-12-18T01:50:26.635Z,45.64
2022-12-18T01:52:58.842Z,45.70
2022-12-18T01:55:30.014Z,45.76
2022-12-18T01:58:01.553Z,45.80
2022-12-18T02:00:30.145Z,45.82
2022-12-18T02:03:00.595Z,45.78
2022-12-18T02:05:42.107Z,45.74
2022-12-18T02:08:16.101Z,45.76
2022-12-18T02:10:52.571Z,45.79
2022-12-18T02:13:34.873Z,45.77
2022-12-18T02:16:10.745Z,45.86
2022-12-18T02:18:47.223Z,45.81
2022-12-18T02:21:27.846Z,45.89
2022-12-18T02:24:08.308Z,45.61
2022-12-18T02:26:45.331Z,45.76
2022-12-18T02:29:18.742Z,45.76
2022-12-18T02:31:52.686Z,45.89
2022-12-18T02:34:26.120Z,45.83
2022-12-18T02:36:57.595Z,45.93
2022-12-18T02:39:28.842Z,45.79
2022-12-18T02:42:08.816Z,45.70
2022-12-18T02:44:43.395Z,45.79
2022-12-18T02:47:13.604Z,45.78
2022-12-18T02:49:51.074Z,45.86
2022-12-18T02:52:33.975Z,45.81
2022-12-18T02:55:16.598Z,45.79
2022-12-18T02:57:55.942Z,45.83
2022-12-18T03:00:33.088Z,45.75
2022-12-18T03:03:07.646Z,45.83
2022-12-18T03:05:40.979Z,45.90
2022-12-18T03:08:14.864Z,45.80
2022-12-18T03:10:51.955Z,45.74
2022-12-18T03:13:30.814Z,45.89
2022-12-18T03:16:02.592Z,45.94
2022-12-18T03:18:35.557Z,45.84
2022-12-18T03:21:07.930Z,45.79
2022-12-18T03:23:42.512Z,45.80
2022-12-18T03:26:17.333Z,45.58
2022-12-18T03:28:54.240Z,45.84
2022-12-18T03:31:25.513Z,45.83
2022-12-18T03:33:56.728Z,45.84
2022-12-18T03:36:35.143Z,45.85
2022-12-18T03:39:04.179Z,45.93
2022-12-18T03:41:43.295Z,45.83
2022-12-18T03:44:30.752Z,45.98
2022-12-18T03:47:07.365Z,46.02
2022-12-18T03:49:41.052Z,45.81
2022-12-18T03:52:14.996Z,45.90
2022-12-18T03:54:45.414Z,45.71
2022-12-18T03:57:20.589Z,45.93
2022-12-18T03:59:57.118Z,45.92
2022-12-18T04:02:30.932Z,46.02
2022-12-18T04:05:04.705Z,45.83
2022-12-18T04:07:34.202Z,45.94
2022-12-18T04:10:04.378Z,45.99
2022-12-18T04:12:33.950Z,45.93
2022-12-18T04:15:04.540Z,45.82
2022-12-18T04:17:33.006Z,46.04
2022-12-18T04:20:01.498Z,46.02
2022-12-18T04:22:30.031Z,45.99
2022-12-18T04:25:01.313Z,46.03
2022-12-18T04:27:37.330Z,45.93
2022-12-18T04:30:09.766Z,45.96
2022-12-18T04:32:38.345Z,46.01
2022-12-18T04:35:11.378Z,46.07
2022-12-18T04:37:40.812Z,46.03
2022-12-18T04:40:10.801Z,45.92
2022-12-18T04:42:43.715Z,45.85
2022-12-18T04:45:13.591Z,45.87
2022-12-18T04:47:42.006Z,45.92
2022-12-18T04:50:10.578Z,46.03
2022-12-18T04:52:39.086Z,46.03
2022-12-18T04:55:07.863Z,45.98
2022-12-18T04:57:36.348Z,46.00
2022-12-18T05:00:06.939Z,45.88
2022-12-18T05:02:36.928Z,46.01
2022-12-18T05:05:06.268Z,46.12
2022-12-18T05:07:34.727Z,45.94
2022-12-18T05:10:03.167Z,46.10
2022-12-18T05:12:33.522Z,45.65
2022-12-18T05:15:01.960Z,45.93
2022-12-18T05:17:30.372Z,46.05
2022-12-18T05:20:00.072Z,45.92
2022-12-18T05:22:28.488Z,46.13
2022-12-18T05:24:57.049Z,46.09
2022-12-18T05:27:25.457Z,46.08
2022-12-18T05:29:53.852Z,46.00
2022-12-18T05:32:22.272Z,45.92
2022-12-18T05:34:50.664Z,46.09
2022-12-18T05:37:20.410Z,46.10
2022-12-18T05:39:48.834Z,45.97
2022-12-18T05:42:17.224Z,46.10
2022-12-18T05:44:45.751Z,46.14
2022-12-18T05:47:14.130Z,46.01
2022-12-18T05:49:42.590Z,46.11
2022-12-18T05:52:11.199Z,46.04
2022-12-18T05:54:41.111Z,46.11
2022-12-18T05:57:09.511Z,45.94
2022-12-18T05:59:37.974Z,46.13
2022-12-18T06:02:06.453Z,46.00
2022-12-18T06:04:34.922Z,45.89
2022-12-18T06:07:06.086Z,45.83
2022-12-18T06:09:34.584Z,45.85
2022-12-18T06:12:04.607Z,45.67
2022-12-18T06:14:33.039Z,45.78
2022-12-18T06:17:01.494Z,45.63
2022-12-18T06:19:29.946Z,45.60
2022-12-18T06:21:59.807Z,45.50
2022-12-18T06:24:28.354Z,45.46
2022-12-18T06:26:56.928Z,45.34
2022-12-18T06:29:26.838Z,45.17
2022-12-18T06:31:55.372Z,45.06
2022-12-18T06:34:23.877Z,44.84
2022-12-18T06:36:52.503Z,44.81
2022-12-18T06:39:20.962Z,44.62
2022-12-18T06:41:49.438Z,44.59
2022-12-18T06:44:18.104Z,44.47
2022-12-18T06:46:48.077Z,44.34
2022-12-18T06:49:16.895Z,44.53
2022-12-18T06:51:45.386Z,44.36
2022-12-18T06:54:14.634Z,44.60
2022-12-18T06:56:43.181Z,44.16
2022-12-18T06:59:11.660Z,44.32
2022-12-18T07:01:40.276Z,44.11
2022-12-18T07:04:10.254Z,44.32
2022-12-18T07:06:38.689Z,44.10
2022-12-18T07:09:07.136Z,43.84
2022-12-18T07:11:35.939Z,43.76
2022-12-18T07:14:04.467Z,43.93
2022-12-18T07:16:33.123Z,43.89
2022-12-18T07:19:01.557Z,44.01
2022-12-18T07:21:31.388Z,43.69
2022-12-18T07:24:00.112Z,43.70
2022-12-18T07:26:28.649Z,43.76
2022-12-18T07:28:58.415Z,43.64
2022-12-18T07:31:27.852Z,43.78
2022-12-18T07:33:57.246Z,43.77
2022-12-18T07:36:26.172Z,43.85
2022-12-18T07:38:55.929Z,43.65
2022-12-18T07:41:24.356Z,43.83
2022-12-18T07:43:52.749Z,43.59
2022-12-18T07:46:21.160Z,43.61
2022-12-18T07:48:50.430Z,43.47
2022-12-18T07:51:20.044Z,43.61
2022-12-18T07:53:52.325Z,43.57
2022-12-18T07:56:31.417Z,43.73
2022-12-18T07:59:00.857Z,43.72
2022-12-18T08:01:32.346Z,43.70
2022-12-18T08:04:00.817Z,43.51
2022-12-18T08:06:29.305Z,43.69
2022-12-18T08:08:58.209Z,43.73
2022-12-18T08:11:29.787Z,43.46
2022-12-18T08:13:59.433Z,43.60
2022-12-18T08:16:28.966Z,43.55
2022-12-18T08:18:57.860Z,43.59
2022-12-18T08:21:28.153Z,43.58
2022-12-18T08:23:58.025Z,43.56
2022-12-18T08:26:30.029Z,43.53
2022-12-18T08:28:59.845Z,43.70
2022-12-18T08:31:30.274Z,43.70
2022-12-18T08:33:59.700Z,44.02
2022-12-18T08:36:28.362Z,43.95
2022-12-18T08:38:56.848Z,44.02
2022-12-18T08:41:25.326Z,43.93
2022-12-18T08:44:12.748Z,43.86
2022-12-18T08:46:43.666Z,43.87
2022-12-18T08:49:13.089Z,44.01
2022-12-18T08:51:41.902Z,43.97
2022-12-18T08:54:13.428Z,44.03
2022-12-18T08:56:41.847Z,43.96
2022-12-18T08:59:18.793Z,43.86
2022-12-18T09:01:48.798Z,43.66
2022-12-18T09:04:17.776Z,43.78
2022-12-18T09:06:46.150Z,43.73
2022-12-18T09:09:14.751Z,43.83
2022-12-18T09:11:43.424Z,43.55
2022-12-18T09:14:13.287Z,43.80
2022-12-18T09:16:41.724Z,43.67
2022-12-18T09:19:11.814Z,43.40
2022-12-18T09:21:46.087Z,43.45
2022-12-18T09:24:17.377Z,29.40
2022-12-18T09:26:47.349Z,28.44
2022-12-18T09:29:19.068Z,31.94
2022-12-18T09:31:47.683Z,32.25
2022-12-18T09:34:16.229Z,34.89
2022-12-18T09:36:44.737Z,39.32
2022-12-18T09:39:13.119Z,39.33
2022-12-18T09:41:46.080Z,36.98
2022-12-18T09:44:26.991Z,35.31
2022-12-18T09:47:15.686Z,33.99
2022-12-18T09:49:47.278Z,32.78
2022-12-18T09:52:21.503Z,32.01
2022-12-18T09:54:55.577Z,31.91
2022-12-18T09:57:26.448Z,31.82
2022-12-18T10:00:00.676Z,31.90
2022-12-18T10:02:32.307Z,32.02
2022-12-18T10:05:11.375Z,32.10
2022-12-18T10:07:51.827Z,32.20
2022-12-18T10:10:33.871Z,32.22
2022-12-18T10:13:11.764Z,32.00
2022-12-18T10:15:50.546Z,32.61
2022-12-18T10:18:27.798Z,32.64
2022-12-18T10:21:02.036Z,32.77
2022-12-18T10:23:44.947Z,32.85
2022-12-18T10:26:16.484Z,32.68
2022-12-18T10:28:46.064Z,33.04
2022-12-18T10:31:18.928Z,33.25
2022-12-18T10:33:47.656Z,33.25
2022-12-18T10:36:16.232Z,33.42
2022-12-18T10:38:44.997Z,33.58
2022-12-18T10:41:27.760Z,33.71
2022-12-18T10:44:18.499Z,33.79
2022-12-18T10:46:51.090Z,33.74
2022-12-18T10:49:25.511Z,34.15
2022-12-18T10:52:07.311Z,34.19
2022-12-18T10:54:36.980Z,34.44
2022-12-18T10:57:19.208Z,34.40
2022-12-18T10:59:54.250Z,34.62
2022-12-18T11:02:36.793Z,34.75
2022-12-18T11:05:25.134Z,34.94
2022-12-18T11:07:55.732Z,35.10
2022-12-18T11:10:28.027Z,35.23
2022-12-18T11:13:10.790Z,35.61
2022-12-18T11:15:42.399Z,35.49
2022-12-18T11:18:21.554Z,35.32
2022-12-18T11:20:58.512Z,35.77
2022-12-18T11:23:28.417Z,36.04
2022-12-18T11:25:59.634Z,36.07
2022-12-18T11:28:31.377Z,36.01
2022-12-18T11:31:18.349Z,36.34
2022-12-18T11:34:26.784Z,36.42
2022-12-18T11:36:46.545Z,36.74
2022-12-18T11:39:21.083Z,36.81
2022-12-18T11:42:11.618Z,37.05
2022-12-18T11:44:48.635Z,37.59
2022-12-18T11:47:24.155Z,37.18
2022-12-18T11:49:55.327Z,37.31
2022-12-18T11:52:28.453Z,37.53
2022-12-18T11:55:00.720Z,37.83
2022-12-18T11:57:39.011Z,37.90
2022-12-18T12:00:15.894Z,37.99
2022-12-18T12:03:11.811Z,38.26
2022-12-18T12:05:50.972Z,38.38
2022-12-18T12:08:26.307Z,38.48
2022-12-18T12:11:05.112Z,38.58
2022-12-18T12:13:48.137Z,38.74
2022-12-18T12:16:23.662Z,38.80
2022-12-18T12:19:05.793Z,39.05
2022-12-18T12:21:41.256Z,39.07
2022-12-18T12:24:28.837Z,39.13
2022-12-18T12:27:10.395Z,39.26
2022-12-18T12:29:52.731Z,39.31
2022-12-18T12:32:35.022Z,39.42
2022-12-18T12:35:20.682Z,39.66
2022-12-18T12:38:04.614Z,39.61
2022-12-18T12:40:58.806Z,39.83
2022-12-18T12:43:34.310Z,39.97
2022-12-18T12:46:07.509Z,39.72
2022-12-18T12:48:43.053Z,40.07
2022-12-18T12:51:18.417Z,40.17
2022-12-18T12:53:49.762Z,40.19
2022-12-18T12:56:22.127Z,40.55
2022-12-18T12:59:01.045Z,40.39
2022-12-18T13:01:40.896Z,40.45
2022-12-18T13:04:22.471Z,40.55
2022-12-18T13:07:01.626Z,40.69
2022-12-18T13:09:36.662Z,40.72
2022-12-18T13:12:43.213Z,40.98
2022-12-18T13:15:22.041Z,41.01
2022-12-18T13:17:50.766Z,41.11
2022-12-18T13:20:19.277Z,41.02
2022-12-18T13:22:49.321Z,41.11
2022-12-18T13:25:34.535Z,41.10
2022-12-18T13:28:09.232Z,41.08
2022-12-18T13:30:47.354Z,41.20
2022-12-18T13:36:38.016Z,41.47
2022-12-18T13:39:35.421Z,41.54
2022-12-18T13:43:00.495Z,41.70
2022-12-18T13:45:47.890Z,41.82
2022-12-18T13:48:19.183Z,41.88
2022-12-18T13:50:55.221Z,41.87
2022-12-18T13:53:28.501Z,41.86
2022-12-18T13:55:57.473Z,41.83
2022-12-18T13:58:27.419Z,41.92
2022-12-18T14:00:55.976Z,42.00
2022-12-18T14:03:28.098Z,42.06
2022-12-18T14:06:01.558Z,42.06
2022-12-18T14:08:36.874Z,42.31
2022-12-18T14:11:08.661Z,42.56
2022-12-18T14:13:44.052Z,42.24
2022-12-18T14:16:17.336Z,42.34
2022-12-18T14:18:48.603Z,42.46
2022-12-18T14:21:23.988Z,42.35
2022-12-18T14:24:06.077Z,42.22
2022-12-18T14:26:35.075Z,42.44
2022-12-18T14:29:22.435Z,42.38
2022-12-18T14:32:17.938Z,42.47
2022-12-18T14:34:50.390Z,42.51
2022-12-18T14:37:22.165Z,42.55
2022-12-18T14:39:58.991Z,42.59
2022-12-18T14:42:29.136Z,42.51
2022-12-18T14:45:45.523Z,42.60
2022-12-18T14:48:21.718Z,42.60
2022-12-18T14:51:00.743Z,42.58
2022-12-18T14:53:37.774Z,42.68
2022-12-18T14:56:18.078Z,42.70
2022-12-18T14:58:49.206Z,42.70
2022-12-18T15:01:28.310Z,42.78
2022-12-18T15:03:58.243Z,42.71
2022-12-18T15:06:31.155Z,42.71
2022-12-18T15:09:00.456Z,42.82
2022-12-18T15:11:31.541Z,42.91
2022-12-18T15:14:01.521Z,42.80
2022-12-18T15:16:31.379Z,42.87
2022-12-18T15:18:59.902Z,42.86
2022-12-18T15:21:31.545Z,42.88
2022-12-18T15:24:02.767Z,42.86
2022-12-18T15:26:39.470Z,42.94
2022-12-18T15:29:20.537Z,42.80
2022-12-18T15:32:02.156Z,42.55
2022-12-18T15:34:31.461Z,42.88
2022-12-18T15:36:59.918Z,43.00
2022-12-18T15:39:28.323Z,42.94
2022-12-18T15:42:14.497Z,42.81
2022-12-18T15:44:42.995Z,42.99
2022-12-18T15:47:14.593Z,43.04
2022-12-18T15:49:43.127Z,43.00
2022-12-18T15:52:26.716Z,43.06
2022-12-18T15:55:12.597Z,42.89
2022-12-18T15:57:41.046Z,42.92
2022-12-18T16:00:14.562Z,42.92
2022-12-18T16:02:45.171Z,43.10
2022-12-18T16:05:17.895Z,42.98
2022-12-18T16:07:46.633Z,42.96
2022-12-18T16:10:15.733Z,42.95
2022-12-18T16:12:44.505Z,43.00
2022-12-18T16:15:22.412Z,42.97
2022-12-18T16:17:54.268Z,42.94
2022-12-18T16:20:24.204Z,42.91
2022-12-18T16:22:54.098Z,42.91
2022-12-18T16:25:27.201Z,42.96
2022-12-18T16:27:57.195Z,43.07
2022-12-18T16:30:29.451Z,43.04
2022-12-18T16:33:07.487Z,43.01
2022-12-18T16:35:38.099Z,42.93
2022-12-18T16:38:06.686Z,42.89
2022-12-18T16:40:55.186Z,42.72
2022-12-18T16:43:23.704Z,42.73
2022-12-18T16:45:52.285Z,42.72
2022-12-18T16:48:22.078Z,42.71
2022-12-18T16:50:50.555Z,42.67
2022-12-18T16:53:19.083Z,42.57
2022-12-18T16:55:55.960Z,42.62
2022-12-18T16:58:24.471Z,42.50
2022-12-18T17:00:52.911Z,42.54
2022-12-18T17:03:22.764Z,42.55
2022-12-18T17:05:53.221Z,42.55
2022-12-18T17:08:21.921Z,42.58
2022-12-18T17:10:50.406Z,42.56
2022-12-18T17:13:22.722Z,42.59
2022-12-18T17:15:54.299Z,42.39
2022-12-18T17:18:24.237Z,42.37
2022-12-18T17:20:52.926Z,42.35
2022-12-18T17:23:23.506Z,42.46
2022-12-18T17:25:55.643Z,42.46
2022-12-18T17:28:24.301Z,42.42
2022-12-18T17:30:53.171Z,42.37
2022-12-18T17:33:22.466Z,42.45
2022-12-18T17:35:53.034Z,42.33
2022-12-18T17:38:21.565Z,42.37
2022-12-18T17:40:50.044Z,42.32
2022-12-18T17:43:19.497Z,42.32
2022-12-18T17:45:48.012Z,42.27
2022-12-18T17:48:16.465Z,42.19
2022-12-18T17:50:45.785Z,42.27
2022-12-18T17:53:16.140Z,42.19
2022-12-18T17:55:45.733Z,42.29
2022-12-18T17:58:14.359Z,42.40
2022-12-18T18:00:43.296Z,42.54
2022-12-18T18:03:11.956Z,42.59
2022-12-18T18:05:40.710Z,42.76
2022-12-18T18:08:09.398Z,42.59
2022-12-18T18:10:40.816Z,42.60
2022-12-18T18:13:42.038Z,42.27
2022-12-18T18:16:14.877Z,42.27
2022-12-18T18:18:43.383Z,42.19
2022-12-18T18:21:11.822Z,42.00
2022-12-18T18:23:42.193Z,41.95
2022-12-18T18:26:13.591Z,41.75
2022-12-18T18:28:42.300Z,41.66
2022-12-18T18:31:12.225Z,41.58
2022-12-18T18:33:41.031Z,41.48
2022-12-18T18:36:12.466Z,41.20
2022-12-18T18:38:46.716Z,40.90
2022-12-18T18:41:18.641Z,41.16
2022-12-18T18:43:47.362Z,41.06
2022-12-18T18:46:17.135Z,41.20
2022-12-18T18:48:45.750Z,41.29
2022-12-18T18:51:20.159Z,41.34
2022-12-18T18:53:52.362Z,41.39
2022-12-18T18:59:12.904Z,41.36
2022-12-18T19:01:42.066Z,41.52
2022-12-18T19:04:11.103Z,41.64
2022-12-18T19:06:40.123Z,41.69
2022-12-18T19:09:09.226Z,41.66
2022-12-18T19:11:58.462Z,41.79
2022-12-18T19:14:28.047Z,41.79
2022-12-18T19:16:56.702Z,41.70
2022-12-18T19:19:25.316Z,41.75
2022-12-18T19:21:54.103Z,41.63
2022-12-18T19:24:22.742Z,41.77
2022-12-18T19:26:55.368Z,41.61
2022-12-18T19:29:26.837Z,41.47
2022-12-18T19:31:55.365Z,41.66
2022-12-18T19:34:23.879Z,41.50
2022-12-18T19:36:59.314Z,41.54
2022-12-18T19:39:28.292Z,41.56
2022-12-18T19:41:58.085Z,41.47
2022-12-18T19:44:26.829Z,41.59
2022-12-18T19:46:55.336Z,41.61
2022-12-18T19:49:23.841Z,41.46
2022-12-18T19:51:53.045Z,41.57
2022-12-18T19:54:21.535Z,41.64
2022-12-18T19:56:52.745Z,41.69
2022-12-18T19:59:23.087Z,41.75
2022-12-18T20:01:54.165Z,41.92
2022-12-18T20:04:22.933Z,41.98
2022-12-18T20:06:52.880Z,42.14
2022-12-18T20:09:22.301Z,42.82
2022-12-18T20:11:51.212Z,43.13
2022-12-18T20:14:23.515Z,42.69
2022-12-18T20:16:53.988Z,42.37
2022-12-18T20:19:23.303Z,42.15
2022-12-18T20:21:51.763Z,42.16
2022-12-18T20:24:20.233Z,42.13
2022-12-18T20:26:48.793Z,42.02
2022-12-18T20:29:18.565Z,42.08
2022-12-18T20:31:47.079Z,42.04
2022-12-18T20:34:16.944Z,41.96
2022-12-18T20:36:45.712Z,41.99
2022-12-18T20:39:15.136Z,42.01
2022-12-18T20:41:44.213Z,41.85
2022-12-18T20:44:23.673Z,41.89
2022-12-18T20:46:54.876Z,41.67
2022-12-18T20:49:25.701Z,41.75
2022-12-18T20:51:56.815Z,41.87
2022-12-18T20:54:27.755Z,41.81
2022-12-18T20:56:57.517Z,41.80
2022-12-18T20:59:26.557Z,41.67
2022-12-18T21:01:55.353Z,41.67
2022-12-18T21:04:25.666Z,41.76
2022-12-18T21:07:00.749Z,41.76
2022-12-18T21:09:37.680Z,41.69
2022-12-18T21:12:29.394Z,41.90
2022-12-18T21:15:05.389Z,41.69
2022-12-18T21:17:34.143Z,41.64
2022-12-18T21:20:11.507Z,41.57
2022-12-18T21:22:46.718Z,41.71
2022-12-18T21:25:15.212Z,41.70
2022-12-18T21:27:43.621Z,41.63
2022-12-18T21:30:13.899Z,41.68
2022-12-18T21:32:42.457Z,41.66
2022-12-18T21:35:12.551Z,41.93
2022-12-18T21:37:41.088Z,41.75
2022-12-18T21:40:10.711Z,41.81
2022-12-18T21:42:56.724Z,41.81
2022-12-18T21:45:25.241Z,42.00
2022-12-18T21:47:53.703Z,41.90
2022-12-18T21:50:23.549Z,42.00
2022-12-18T21:52:52.024Z,42.03
2022-12-18T21:55:20.427Z,41.90
2022-12-18T21:57:48.871Z,41.97
2022-12-18T22:00:19.633Z,41.99
2022-12-18T22:03:17.774Z,41.95
2022-12-18T22:05:39.018Z,41.99
2022-12-18T22:08:07.686Z,42.01
2022-12-18T22:10:36.725Z,41.89
2022-12-18T22:13:05.183Z,42.06
2022-12-18T22:15:34.213Z,42.01
2022-12-18T22:18:02.748Z,42.06
2022-12-18T22:20:31.259Z,42.13
2022-12-18T22:23:04.357Z,42.11
2022-12-18T22:25:35.370Z,42.11
2022-12-18T22:28:24.461Z,42.23
2022-12-18T22:30:59.379Z,42.18
2022-12-18T22:33:29.194Z,42.20
2022-12-18T22:35:57.636Z,42.28
2022-12-18T22:38:27.395Z,42.27
2022-12-18T22:40:56.183Z,42.15
2022-12-18T22:43:24.691Z,42.33
2022-12-18T22:45:53.174Z,42.23
2022-12-18T22:48:21.778Z,42.36
2022-12-18T22:50:50.222Z,42.44
2022-12-18T22:53:21.678Z,42.27
2022-12-18T22:55:51.502Z,42.33
2022-12-18T22:58:19.938Z,42.42
2022-12-18T23:00:48.397Z,42.40
2022-12-18T23:03:16.839Z,42.40
2022-12-18T23:05:45.298Z,42.43
2022-12-18T23:08:13.780Z,42.42
2022-12-18T23:10:42.240Z,42.51
2022-12-18T23:13:11.997Z,42.44
2022-12-18T23:15:42.514Z,42.39
2022-12-18T23:18:11.235Z,42.46
2022-12-18T23:20:39.739Z,42.49
2022-12-18T23:23:08.655Z,42.44
2022-12-18T23:25:37.144Z,42.53
2022-12-18T23:28:06.043Z,42.39
2022-12-18T23:30:36.153Z,42.46
2022-12-18T23:33:04.788Z,42.51
2022-12-18T23:35:33.474Z,42.48
2022-12-18T23:38:01.884Z,42.55
2022-12-18T23:40:30.844Z,42.36
2022-12-18T23:43:00.042Z,42.52
2022-12-18T23:45:28.756Z,42.40
2022-12-18T23:47:58.612Z,42.47
2022-12-18T23:50:29.767Z,42.44
2022-12-18T23:53:03.277Z,42.38
2022-12-18T23:55:39.560Z,42.49
2022-12-18T23:58:09.446Z,42.39
